sensor_id;sensor_type;location;lat;lon;timestamp;P1;durP1;ratioP1;P2;durP2;ratioP2
7845;SDS011;3968;51.424;6.788;2023-03-17T00:01:08;3.00;;;2.47;;
7845;SDS011;3968;51.424;6.788;2023-03-17T00:03:40;6.17;;;4.20;;
7845;SDS011;3968;51.424;6.788;2023-03-17T00:06:13;3.40;;;2.57;;
7845;SDS011;3968;51.424;6.788;2023-03-17T00:08:40;5.60;;;2.90;;
7845;SDS011;3968;51.424;6.788;2023-03-17T00:11:13;3.90;;;2.40;;
7845;SDS011;3968;51.424;6.788;2023-03-17T00:13:40;4.60;;;3.40;;
7845;SDS011;3968;51.424;6.788;2023-03-17T00:16:09;4.80;;;2.50;;
7845;SDS011;3968;51.424;6.788;2023-03-17T00:18:37;5.50;;;3.50;;
7845;SDS011;3968;51.424;6.788;2023-03-17T00:21:03;3.87;;;2.93;;
7845;SDS011;3968;51.424;6.788;2023-03-17T00:23:29;4.03;;;2.60;;
7845;SDS011;3968;51.424;6.788;2023-03-17T00:25:55;4.83;;;2.90;;
7845;SDS011;3968;51.424;6.788;2023-03-17T00:28:23;4.50;;;2.80;;
7845;SDS011;3968;51.424;6.788;2023-03-17T00:30:53;4.27;;;2.63;;
7845;SDS011;3968;51.424;6.788;2023-03-17T00:33:22;4.13;;;3.10;;
7845;SDS011;3968;51.424;6.788;2023-03-17T00:35:48;3.23;;;2.40;;
7845;SDS011;3968;51.424;6.788;2023-03-17T00:38:15;3.40;;;2.67;;
7845;SDS011;3968;51.424;6.788;2023-03-17T00:40:42;4.83;;;2.43;;
7845;SDS011;3968;51.424;6.788;2023-03-17T00:43:08;3.93;;;2.90;;
7845;SDS011;3968;51.424;6.788;2023-03-17T00:45:34;6.67;;;3.10;;
7845;SDS011;3968;51.424;6.788;2023-03-17T00:48:01;6.23;;;2.63;;
7845;SDS011;3968;51.424;6.788;2023-03-17T00:50:27;3.00;;;2.70;;
7845;SDS011;3968;51.424;6.788;2023-03-17T00:52:55;3.20;;;2.47;;
7845;SDS011;3968;51.424;6.788;2023-03-17T00:55:22;3.67;;;2.53;;
7845;SDS011;3968;51.424;6.788;2023-03-17T00:57:48;3.00;;;2.33;;
7845;SDS011;3968;51.424;6.788;2023-03-17T01:00:22;3.20;;;2.50;;
7845;SDS011;3968;51.424;6.788;2023-03-17T01:02:49;3.17;;;2.70;;
7845;SDS011;3968;51.424;6.788;2023-03-17T01:05:15;4.27;;;2.60;;
7845;SDS011;3968;51.424;6.788;2023-03-17T01:07:42;5.17;;;2.33;;
7845;SDS011;3968;51.424;6.788;2023-03-17T01:10:13;4.73;;;2.83;;
7845;SDS011;3968;51.424;6.788;2023-03-17T01:12:39;3.53;;;2.50;;
7845;SDS011;3968;51.424;6.788;2023-03-17T01:15:05;2.70;;;2.17;;
7845;SDS011;3968;51.424;6.788;2023-03-17T01:17:31;4.20;;;2.33;;
7845;SDS011;3968;51.424;6.788;2023-03-17T01:19:57;4.47;;;2.70;;
7845;SDS011;3968;51.424;6.788;2023-03-17T01:22:23;2.80;;;2.60;;
7845;SDS011;3968;51.424;6.788;2023-03-17T01:24:49;5.00;;;2.40;;
7845;SDS011;3968;51.424;6.788;2023-03-17T01:27:17;3.47;;;2.77;;
7845;SDS011;3968;51.424;6.788;2023-03-17T01:29:43;4.87;;;2.10;;
7845;SDS011;3968;51.424;6.788;2023-03-17T01:32:09;3.53;;;2.27;;
7845;SDS011;3968;51.424;6.788;2023-03-17T01:34:35;3.37;;;2.70;;
7845;SDS011;3968;51.424;6.788;2023-03-17T01:37:01;6.57;;;2.77;;
7845;SDS011;3968;51.424;6.788;2023-03-17T01:39:27;6.10;;;2.40;;
7845;SDS011;3968;51.424;6.788;2023-03-17T01:41:53;3.77;;;2.50;;
7845;SDS011;3968;51.424;6.788;2023-03-17T01:44:21;5.97;;;2.30;;
7845;SDS011;3968;51.424;6.788;2023-03-17T01:46:48;3.20;;;2.40;;
7845;SDS011;3968;51.424;6.788;2023-03-17T01:49:30;4.27;;;2.60;;
7845;SDS011;3968;51.424;6.788;2023-03-17T01:52:05;3.50;;;2.30;;
7845;SDS011;3968;51.424;6.788;2023-03-17T01:54:35;3.50;;;2.40;;
7845;SDS011;3968;51.424;6.788;2023-03-17T01:57:12;3.17;;;2.47;;
7845;SDS011;3968;51.424;6.788;2023-03-17T01:59:48;3.47;;;2.80;;
7845;SDS011;3968;51.424;6.788;2023-03-17T02:02:18;4.10;;;2.20;;
7845;SDS011;3968;51.424;6.788;2023-03-17T02:04:44;4.53;;;2.70;;
7845;SDS011;3968;51.424;6.788;2023-03-17T02:07:10;3.47;;;2.10;;
7845;SDS011;3968;51.424;6.788;2023-03-17T02:09:36;3.53;;;2.53;;
7845;SDS011;3968;51.424;6.788;2023-03-17T02:12:03;2.67;;;2.17;;
7845;SDS011;3968;51.424;6.788;2023-03-17T02:14:29;2.90;;;2.50;;
7845;SDS011;3968;51.424;6.788;2023-03-17T02:16:55;4.00;;;2.40;;
7845;SDS011;3968;51.424;6.788;2023-03-17T02:19:21;2.83;;;2.20;;
7845;SDS011;3968;51.424;6.788;2023-03-17T02:21:57;2.70;;;2.30;;
7845;SDS011;3968;51.424;6.788;2023-03-17T02:24:43;3.80;;;2.30;;
7845;SDS011;3968;51.424;6.788;2023-03-17T02:27:21;4.47;;;2.10;;
7845;SDS011;3968;51.424;6.788;2023-03-17T02:29:48;3.43;;;2.20;;
7845;SDS011;3968;51.424;6.788;2023-03-17T02:32:15;3.43;;;2.10;;
7845;SDS011;3968;51.424;6.788;2023-03-17T02:34:42;2.60;;;2.37;;
7845;SDS011;3968;51.424;6.788;2023-03-17T02:37:08;2.80;;;2.37;;
7845;SDS011;3968;51.424;6.788;2023-03-17T02:39:35;2.97;;;2.27;;
7845;SDS011;3968;51.424;6.788;2023-03-17T02:42:01;3.00;;;2.33;;
7845;SDS011;3968;51.424;6.788;2023-03-17T02:44:27;2.40;;;2.07;;
7845;SDS011;3968;51.424;6.788;2023-03-17T02:46:53;2.87;;;2.60;;
7845;SDS011;3968;51.424;6.788;2023-03-17T02:49:20;2.37;;;2.10;;
7845;SDS011;3968;51.424;6.788;2023-03-17T02:51:47;3.47;;;2.60;;
7845;SDS011;3968;51.424;6.788;2023-03-17T02:54:13;3.77;;;2.33;;
7845;SDS011;3968;51.424;6.788;2023-03-17T02:56:39;5.47;;;2.53;;
7845;SDS011;3968;51.424;6.788;2023-03-17T02:59:06;3.93;;;2.50;;
7845;SDS011;3968;51.424;6.788;2023-03-17T03:01:32;2.53;;;2.30;;
7845;SDS011;3968;51.424;6.788;2023-03-17T03:03:58;2.30;;;2.00;;
7845;SDS011;3968;51.424;6.788;2023-03-17T03:06:24;4.43;;;2.57;;
7845;SDS011;3968;51.424;6.788;2023-03-17T03:08:50;2.93;;;2.10;;
7845;SDS011;3968;51.424;6.788;2023-03-17T03:11:17;3.33;;;2.40;;
7845;SDS011;3968;51.424;6.788;2023-03-17T03:13:43;4.43;;;2.63;;
7845;SDS011;3968;51.424;6.788;2023-03-17T03:16:10;3.17;;;2.20;;
7845;SDS011;3968;51.424;6.788;2023-03-17T03:18:36;5.07;;;2.53;;
7845;SDS011;3968;51.424;6.788;2023-03-17T03:21:03;3.60;;;2.50;;
7845;SDS011;3968;51.424;6.788;2023-03-17T03:23:29;2.97;;;2.57;;
7845;SDS011;3968;51.424;6.788;2023-03-17T03:25:55;2.43;;;2.23;;
7845;SDS011;3968;51.424;6.788;2023-03-17T03:28:21;4.57;;;2.40;;
7845;SDS011;3968;51.424;6.788;2023-03-17T03:30:47;5.40;;;2.43;;
7845;SDS011;3968;51.424;6.788;2023-03-17T03:33:14;2.63;;;2.00;;
7845;SDS011;3968;51.424;6.788;2023-03-17T03:35:40;3.97;;;2.03;;
7845;SDS011;3968;51.424;6.788;2023-03-17T03:38:07;3.27;;;2.40;;
7845;SDS011;3968;51.424;6.788;2023-03-17T03:40:33;5.60;;;2.10;;
7845;SDS011;3968;51.424;6.788;2023-03-17T03:43:00;2.50;;;2.30;;
7845;SDS011;3968;51.424;6.788;2023-03-17T03:45:26;4.00;;;2.40;;
7845;SDS011;3968;51.424;6.788;2023-03-17T03:47:52;3.33;;;2.33;;
7845;SDS011;3968;51.424;6.788;2023-03-17T03:50:18;2.90;;;2.27;;
7845;SDS011;3968;51.424;6.788;2023-03-17T03:52:44;2.90;;;2.20;;
7845;SDS011;3968;51.424;6.788;2023-03-17T03:55:10;3.30;;;2.53;;
7845;SDS011;3968;51.424;6.788;2023-03-17T03:57:36;2.93;;;2.30;;
7845;SDS011;3968;51.424;6.788;2023-03-17T04:00:03;6.20;;;2.53;;
7845;SDS011;3968;51.424;6.788;2023-03-17T04:02:29;3.27;;;2.00;;
7845;SDS011;3968;51.424;6.788;2023-03-17T04:04:56;3.57;;;2.33;;
7845;SDS011;3968;51.424;6.788;2023-03-17T04:07:22;3.03;;;2.40;;
7845;SDS011;3968;51.424;6.788;2023-03-17T04:09:48;2.93;;;2.20;;
7845;SDS011;3968;51.424;6.788;2023-03-17T04:12:15;3.73;;;2.43;;
7845;SDS011;3968;51.424;6.788;2023-03-17T04:14:41;2.43;;;2.20;;
7845;SDS011;3968;51.424;6.788;2023-03-17T04:17:09;3.47;;;2.37;;
7845;SDS011;3968;51.424;6.788;2023-03-17T04:19:35;4.13;;;2.47;;
7845;SDS011;3968;51.424;6.788;2023-03-17T04:22:01;2.53;;;2.00;;
7845;SDS011;3968;51.424;6.788;2023-03-17T04:24:27;4.93;;;2.30;;
7845;SDS011;3968;51.424;6.788;2023-03-17T04:26:53;3.70;;;2.60;;
7845;SDS011;3968;51.424;6.788;2023-03-17T04:29:20;5.77;;;2.57;;
7845;SDS011;3968;51.424;6.788;2023-03-17T04:31:46;2.63;;;2.33;;
7845;SDS011;3968;51.424;6.788;2023-03-17T04:34:13;4.07;;;2.40;;
7845;SDS011;3968;51.424;6.788;2023-03-17T04:36:40;2.93;;;2.10;;
7845;SDS011;3968;51.424;6.788;2023-03-17T04:39:07;2.60;;;2.20;;
7845;SDS011;3968;51.424;6.788;2023-03-17T04:41:33;2.70;;;2.30;;
7845;SDS011;3968;51.424;6.788;2023-03-17T04:43:59;4.73;;;2.63;;
7845;SDS011;3968;51.424;6.788;2023-03-17T04:46:25;3.00;;;2.30;;
7845;SDS011;3968;51.424;6.788;2023-03-17T04:48:51;4.20;;;2.53;;
7845;SDS011;3968;51.424;6.788;2023-03-17T04:51:17;3.73;;;2.33;;
7845;SDS011;3968;51.424;6.788;2023-03-17T04:53:43;6.20;;;3.50;;
7845;SDS011;3968;51.424;6.788;2023-03-17T04:56:09;2.93;;;2.50;;
7845;SDS011;3968;51.424;6.788;2023-03-17T04:58:36;3.40;;;2.60;;
7845;SDS011;3968;51.424;6.788;2023-03-17T05:01:02;4.10;;;2.23;;
7845;SDS011;3968;51.424;6.788;2023-03-17T05:03:29;4.23;;;2.30;;
7845;SDS011;3968;51.424;6.788;2023-03-17T05:05:56;2.83;;;2.47;;
7845;SDS011;3968;51.424;6.788;2023-03-17T05:08:22;3.20;;;2.43;;
7845;SDS011;3968;51.424;6.788;2023-03-17T05:10:48;2.60;;;2.40;;
7845;SDS011;3968;51.424;6.788;2023-03-17T05:13:15;3.53;;;2.47;;
7845;SDS011;3968;51.424;6.788;2023-03-17T05:15:46;5.23;;;2.67;;
7845;SDS011;3968;51.424;6.788;2023-03-17T05:18:12;3.43;;;2.83;;
7845;SDS011;3968;51.424;6.788;2023-03-17T05:20:38;5.63;;;2.60;;
7845;SDS011;3968;51.424;6.788;2023-03-17T05:23:05;2.50;;;2.30;;
7845;SDS011;3968;51.424;6.788;2023-03-17T05:25:31;4.77;;;2.40;;
7845;SDS011;3968;51.424;6.788;2023-03-17T05:27:57;3.93;;;2.73;;
7845;SDS011;3968;51.424;6.788;2023-03-17T05:30:23;4.03;;;3.03;;
7845;SDS011;3968;51.424;6.788;2023-03-17T05:32:50;5.87;;;3.90;;
7845;SDS011;3968;51.424;6.788;2023-03-17T05:35:16;4.63;;;3.40;;
7845;SDS011;3968;51.424;6.788;2023-03-17T05:37:43;3.43;;;2.70;;
7845;SDS011;3968;51.424;6.788;2023-03-17T05:40:09;4.67;;;3.07;;
7845;SDS011;3968;51.424;6.788;2023-03-17T05:42:36;4.13;;;2.97;;
7845;SDS011;3968;51.424;6.788;2023-03-17T05:45:02;3.40;;;2.70;;
7845;SDS011;3968;51.424;6.788;2023-03-17T05:47:29;5.00;;;2.43;;
7845;SDS011;3968;51.424;6.788;2023-03-17T05:49:56;2.97;;;2.67;;
7845;SDS011;3968;51.424;6.788;2023-03-17T05:52:22;3.73;;;2.40;;
7845;SDS011;3968;51.424;6.788;2023-03-17T05:54:49;3.73;;;2.43;;
7845;SDS011;3968;51.424;6.788;2023-03-17T05:57:16;2.80;;;2.43;;
7845;SDS011;3968;51.424;6.788;2023-03-17T05:59:42;3.93;;;2.60;;
7845;SDS011;3968;51.424;6.788;2023-03-17T06:02:08;4.17;;;2.60;;
7845;SDS011;3968;51.424;6.788;2023-03-17T06:04:35;4.57;;;2.87;;
7845;SDS011;3968;51.424;6.788;2023-03-17T06:07:01;4.23;;;2.47;;
7845;SDS011;3968;51.424;6.788;2023-03-17T06:09:28;3.53;;;2.37;;
7845;SDS011;3968;51.424;6.788;2023-03-17T06:11:54;4.17;;;2.57;;
7845;SDS011;3968;51.424;6.788;2023-03-17T06:14:21;3.90;;;2.87;;
7845;SDS011;3968;51.424;6.788;2023-03-17T06:16:47;4.37;;;2.43;;
7845;SDS011;3968;51.424;6.788;2023-03-17T06:19:13;4.93;;;3.03;;
7845;SDS011;3968;51.424;6.788;2023-03-17T06:21:39;4.60;;;3.20;;
7845;SDS011;3968;51.424;6.788;2023-03-17T06:24:05;5.83;;;2.70;;
7845;SDS011;3968;51.424;6.788;2023-03-17T06:26:32;5.17;;;2.80;;
7845;SDS011;3968;51.424;6.788;2023-03-17T06:28:58;3.97;;;2.70;;
7845;SDS011;3968;51.424;6.788;2023-03-17T06:31:25;3.10;;;2.43;;
7845;SDS011;3968;51.424;6.788;2023-03-17T06:33:51;5.17;;;2.97;;
7845;SDS011;3968;51.424;6.788;2023-03-17T06:36:17;3.90;;;2.50;;
7845;SDS011;3968;51.424;6.788;2023-03-17T06:38:43;5.33;;;3.47;;
7845;SDS011;3968;51.424;6.788;2023-03-17T06:41:10;6.80;;;4.63;;
7845;SDS011;3968;51.424;6.788;2023-03-17T06:43:36;5.23;;;3.30;;
7845;SDS011;3968;51.424;6.788;2023-03-17T06:46:02;6.53;;;3.27;;
7845;SDS011;3968;51.424;6.788;2023-03-17T06:48:28;7.77;;;4.70;;
7845;SDS011;3968;51.424;6.788;2023-03-17T06:50:54;4.77;;;3.23;;
7845;SDS011;3968;51.424;6.788;2023-03-17T06:53:20;4.90;;;3.17;;
7845;SDS011;3968;51.424;6.788;2023-03-17T06:55:46;3.93;;;2.60;;
7845;SDS011;3968;51.424;6.788;2023-03-17T06:58:12;6.07;;;2.50;;
7845;SDS011;3968;51.424;6.788;2023-03-17T07:00:39;5.23;;;2.67;;
7845;SDS011;3968;51.424;6.788;2023-03-17T07:03:06;3.37;;;2.70;;
7845;SDS011;3968;51.424;6.788;2023-03-17T07:05:33;3.13;;;2.30;;
7845;SDS011;3968;51.424;6.788;2023-03-17T07:08:00;4.00;;;2.80;;
7845;SDS011;3968;51.424;6.788;2023-03-17T07:10:25;3.13;;;2.57;;
7845;SDS011;3968;51.424;6.788;2023-03-17T07:12:52;3.67;;;2.93;;
7845;SDS011;3968;51.424;6.788;2023-03-17T07:15:18;4.07;;;2.70;;
7845;SDS011;3968;51.424;6.788;2023-03-17T07:17:44;3.70;;;3.10;;
7845;SDS011;3968;51.424;6.788;2023-03-17T07:20:13;4.00;;;2.70;;
7845;SDS011;3968;51.424;6.788;2023-03-17T07:22:39;4.10;;;2.83;;
7845;SDS011;3968;51.424;6.788;2023-03-17T07:25:06;6.57;;;3.37;;
7845;SDS011;3968;51.424;6.788;2023-03-17T07:27:33;5.17;;;3.53;;
7845;SDS011;3968;51.424;6.788;2023-03-17T07:29:59;4.67;;;3.50;;
7845;SDS011;3968;51.424;6.788;2023-03-17T07:32:28;9.40;;;3.40;;
7845;SDS011;3968;51.424;6.788;2023-03-17T07:34:54;8.50;;;3.00;;
7845;SDS011;3968;51.424;6.788;2023-03-17T07:37:21;4.87;;;2.87;;
7845;SDS011;3968;51.424;6.788;2023-03-17T07:39:47;4.60;;;3.53;;
7845;SDS011;3968;51.424;6.788;2023-03-17T07:42:13;4.00;;;2.50;;
7845;SDS011;3968;51.424;6.788;2023-03-17T07:44:40;7.30;;;3.03;;
7845;SDS011;3968;51.424;6.788;2023-03-17T07:47:06;90.97;;;55.53;;
7845;SDS011;3968;51.424;6.788;2023-03-17T07:49:33;88.30;;;56.63;;
7845;SDS011;3968;51.424;6.788;2023-03-17T07:51:59;35.43;;;21.73;;
7845;SDS011;3968;51.424;6.788;2023-03-17T07:54:25;11.00;;;5.80;;
7845;SDS011;3968;51.424;6.788;2023-03-17T07:56:52;6.27;;;3.57;;
7845;SDS011;3968;51.424;6.788;2023-03-17T07:59:19;7.50;;;3.43;;
7845;SDS011;3968;51.424;6.788;2023-03-17T08:01:45;4.10;;;3.03;;
7845;SDS011;3968;51.424;6.788;2023-03-17T08:04:11;4.93;;;2.83;;
7845;SDS011;3968;51.424;6.788;2023-03-17T08:06:38;3.67;;;2.50;;
7845;SDS011;3968;51.424;6.788;2023-03-17T08:09:06;6.73;;;3.00;;
7845;SDS011;3968;51.424;6.788;2023-03-17T08:11:32;5.57;;;2.77;;
7845;SDS011;3968;51.424;6.788;2023-03-17T08:13:58;6.77;;;3.33;;
7845;SDS011;3968;51.424;6.788;2023-03-17T08:16:26;3.83;;;3.03;;
7845;SDS011;3968;51.424;6.788;2023-03-17T08:18:52;4.83;;;3.00;;
7845;SDS011;3968;51.424;6.788;2023-03-17T08:21:19;4.20;;;2.93;;
7845;SDS011;3968;51.424;6.788;2023-03-17T08:23:45;3.50;;;2.67;;
7845;SDS011;3968;51.424;6.788;2023-03-17T08:26:11;4.20;;;3.33;;
7845;SDS011;3968;51.424;6.788;2023-03-17T08:28:38;7.40;;;3.43;;
7845;SDS011;3968;51.424;6.788;2023-03-17T08:31:05;6.60;;;3.67;;
7845;SDS011;3968;51.424;6.788;2023-03-17T08:33:32;7.70;;;3.33;;
7845;SDS011;3968;51.424;6.788;2023-03-17T08:35:58;10.63;;;3.33;;
7845;SDS011;3968;51.424;6.788;2023-03-17T08:38:24;8.17;;;4.23;;
7845;SDS011;3968;51.424;6.788;2023-03-17T08:40:50;6.23;;;3.93;;
7845;SDS011;3968;51.424;6.788;2023-03-17T08:43:16;8.70;;;4.00;;
7845;SDS011;3968;51.424;6.788;2023-03-17T08:45:42;8.67;;;3.80;;
7845;SDS011;3968;51.424;6.788;2023-03-17T08:48:08;4.97;;;2.57;;
7845;SDS011;3968;51.424;6.788;2023-03-17T08:50:34;4.67;;;2.60;;
7845;SDS011;3968;51.424;6.788;2023-03-17T08:53:01;5.20;;;2.87;;
7845;SDS011;3968;51.424;6.788;2023-03-17T08:55:27;4.53;;;3.03;;
7845;SDS011;3968;51.424;6.788;2023-03-17T08:57:53;6.07;;;3.30;;
7845;SDS011;3968;51.424;6.788;2023-03-17T09:00:19;2.80;;;2.40;;
7845;SDS011;3968;51.424;6.788;2023-03-17T09:02:45;7.07;;;3.03;;
7845;SDS011;3968;51.424;6.788;2023-03-17T09:05:12;4.77;;;2.90;;
7845;SDS011;3968;51.424;6.788;2023-03-17T09:07:39;3.77;;;2.80;;
7845;SDS011;3968;51.424;6.788;2023-03-17T09:10:06;4.73;;;2.80;;
7845;SDS011;3968;51.424;6.788;2023-03-17T09:12:32;6.00;;;3.63;;
7845;SDS011;3968;51.424;6.788;2023-03-17T09:14:58;4.47;;;3.10;;
7845;SDS011;3968;51.424;6.788;2023-03-17T09:17:25;4.82;;;3.33;;
7845;SDS011;3968;51.424;6.788;2023-03-17T09:19:52;3.63;;;2.67;;
7845;SDS011;3968;51.424;6.788;2023-03-17T09:22:18;5.03;;;2.80;;
7845;SDS011;3968;51.424;6.788;2023-03-17T09:24:44;3.13;;;2.80;;
7845;SDS011;3968;51.424;6.788;2023-03-17T09:27:11;5.43;;;2.92;;
7845;SDS011;3968;51.424;6.788;2023-03-17T09:29:37;4.87;;;2.90;;
7845;SDS011;3968;51.424;6.788;2023-03-17T09:32:03;3.93;;;2.77;;
7845;SDS011;3968;51.424;6.788;2023-03-17T09:34:29;5.03;;;2.97;;
7845;SDS011;3968;51.424;6.788;2023-03-17T09:36:55;6.35;;;3.25;;
7845;SDS011;3968;51.424;6.788;2023-03-17T09:39:23;6.00;;;3.67;;
7845;SDS011;3968;51.424;6.788;2023-03-17T09:42:01;4.60;;;2.93;;
7845;SDS011;3968;51.424;6.788;2023-03-17T09:49:43;4.33;;;2.80;;
7845;SDS011;3968;51.424;6.788;2023-03-17T09:52:13;5.27;;;3.77;;
7845;SDS011;3968;51.424;6.788;2023-03-17T09:54:40;5.23;;;3.27;;
7845;SDS011;3968;51.424;6.788;2023-03-17T09:57:16;4.23;;;3.13;;
7845;SDS011;3968;51.424;6.788;2023-03-17T09:59:45;3.90;;;2.83;;
7845;SDS011;3968;51.424;6.788;2023-03-17T10:02:21;3.93;;;2.80;;
7845;SDS011;3968;51.424;6.788;2023-03-17T10:04:48;4.00;;;2.60;;
7845;SDS011;3968;51.424;6.788;2023-03-17T10:07:15;6.50;;;3.93;;
7845;SDS011;3968;51.424;6.788;2023-03-17T10:09:56;5.57;;;3.20;;
7845;SDS011;3968;51.424;6.788;2023-03-17T10:17:51;4.45;;;2.67;;
7845;SDS011;3968;51.424;6.788;2023-03-17T10:20:24;5.90;;;2.80;;
7845;SDS011;3968;51.424;6.788;2023-03-17T10:23:02;3.63;;;2.67;;
7845;SDS011;3968;51.424;6.788;2023-03-17T10:25:31;7.85;;;2.72;;
7845;SDS011;3968;51.424;6.788;2023-03-17T10:27:58;4.10;;;2.95;;
7845;SDS011;3968;51.424;6.788;2023-03-17T10:30:26;5.43;;;2.88;;
7845;SDS011;3968;51.424;6.788;2023-03-17T10:32:53;8.55;;;4.30;;
7845;SDS011;3968;51.424;6.788;2023-03-17T10:35:21;5.47;;;3.80;;
7845;SDS011;3968;51.424;6.788;2023-03-17T10:37:48;5.00;;;3.53;;
7845;SDS011;3968;51.424;6.788;2023-03-17T10:40:21;7.13;;;3.10;;
7845;SDS011;3968;51.424;6.788;2023-03-17T10:42:51;5.82;;;3.45;;
7845;SDS011;3968;51.424;6.788;2023-03-17T10:45:23;5.88;;;3.30;;
7845;SDS011;3968;51.424;6.788;2023-03-17T10:47:53;5.77;;;2.90;;
7845;SDS011;3968;51.424;6.788;2023-03-17T10:52:47;5.45;;;2.88;;
7845;SDS011;3968;51.424;6.788;2023-03-17T10:55:21;6.40;;;3.00;;
7845;SDS011;3968;51.424;6.788;2023-03-17T10:57:59;5.95;;;3.65;;
7845;SDS011;3968;51.424;6.788;2023-03-17T11:00:27;5.40;;;3.50;;
7845;SDS011;3968;51.424;6.788;2023-03-17T11:02:55;5.70;;;3.05;;
7845;SDS011;3968;51.424;6.788;2023-03-17T11:05:25;5.15;;;2.88;;
7845;SDS011;3968;51.424;6.788;2023-03-17T11:07:56;4.22;;;2.40;;
7845;SDS011;3968;51.424;6.788;2023-03-17T11:10:24;6.18;;;2.80;;
7845;SDS011;3968;51.424;6.788;2023-03-17T11:13:00;3.97;;;2.80;;
7845;SDS011;3968;51.424;6.788;2023-03-17T11:17:59;4.65;;;2.72;;
7845;SDS011;3968;51.424;6.788;2023-03-17T11:20:29;6.60;;;2.65;;
7845;SDS011;3968;51.424;6.788;2023-03-17T11:23:43;4.00;;;2.83;;
7845;SDS011;3968;51.424;6.788;2023-03-17T11:25:46;4.07;;;2.42;;
7845;SDS011;3968;51.424;6.788;2023-03-17T11:28:21;5.45;;;2.47;;
7845;SDS011;3968;51.424;6.788;2023-03-17T11:33:31;3.50;;;2.70;;
7845;SDS011;3968;51.424;6.788;2023-03-17T11:39:24;3.80;;;2.40;;
7845;SDS011;3968;51.424;6.788;2023-03-17T11:41:33;4.95;;;3.22;;
7845;SDS011;3968;51.424;6.788;2023-03-17T11:44:17;4.05;;;2.60;;
7845;SDS011;3968;51.424;6.788;2023-03-17T11:46:48;5.78;;;2.80;;
7845;SDS011;3968;51.424;6.788;2023-03-17T11:49:20;4.75;;;2.50;;
7845;SDS011;3968;51.424;6.788;2023-03-17T11:51:59;2.63;;;2.13;;
7845;SDS011;3968;51.424;6.788;2023-03-17T11:57:22;3.40;;;2.28;;
7845;SDS011;3968;51.424;6.788;2023-03-17T11:59:57;3.85;;;2.70;;
7845;SDS011;3968;51.424;6.788;2023-03-17T12:02:30;5.45;;;2.50;;
7845;SDS011;3968;51.424;6.788;2023-03-17T12:05:15;3.97;;;3.10;;
7845;SDS011;3968;51.424;6.788;2023-03-17T12:12:56;5.18;;;3.17;;
7845;SDS011;3968;51.424;6.788;2023-03-17T12:15:36;3.58;;;2.88;;
7845;SDS011;3968;51.424;6.788;2023-03-17T12:18:05;4.43;;;3.00;;
7845;SDS011;3968;51.424;6.788;2023-03-17T12:20:56;5.60;;;2.92;;
7845;SDS011;3968;51.424;6.788;2023-03-17T12:23:37;4.10;;;3.10;;
7845;SDS011;3968;51.424;6.788;2023-03-17T12:28:34;6.38;;;4.68;;
7845;SDS011;3968;51.424;6.788;2023-03-17T12:31:11;7.03;;;4.18;;
7845;SDS011;3968;51.424;6.788;2023-03-17T12:36:14;5.22;;;2.92;;
7845;SDS011;3968;51.424;6.788;2023-03-17T12:38:42;5.15;;;2.92;;
7845;SDS011;3968;51.424;6.788;2023-03-17T12:43:37;4.78;;;2.80;;
7845;SDS011;3968;51.424;6.788;2023-03-17T12:48:34;5.75;;;2.95;;
7845;SDS011;3968;51.424;6.788;2023-03-17T12:51:11;5.95;;;2.70;;
7845;SDS011;3968;51.424;6.788;2023-03-17T12:53:43;5.72;;;3.72;;
7845;SDS011;3968;51.424;6.788;2023-03-17T12:58:44;6.95;;;3.10;;
7845;SDS011;3968;51.424;6.788;2023-03-17T13:01:15;7.18;;;4.40;;
7845;SDS011;3968;51.424;6.788;2023-03-17T13:06:28;4.28;;;3.22;;
7845;SDS011;3968;51.424;6.788;2023-03-17T13:08:54;6.72;;;3.20;;
7845;SDS011;3968;51.424;6.788;2023-03-17T13:14:06;4.03;;;2.58;;
7845;SDS011;3968;51.424;6.788;2023-03-17T13:16:39;3.08;;;2.53;;
7845;SDS011;3968;51.424;6.788;2023-03-17T13:19:13;11.73;;;6.45;;
7845;SDS011;3968;51.424;6.788;2023-03-17T13:22:23;7.78;;;3.33;;
7845;SDS011;3968;51.424;6.788;2023-03-17T13:24:49;4.68;;;2.85;;
7845;SDS011;3968;51.424;6.788;2023-03-17T13:30:47;5.88;;;2.92;;
7845;SDS011;3968;51.424;6.788;2023-03-17T13:32:43;4.18;;;3.30;;
7845;SDS011;3968;51.424;6.788;2023-03-17T13:35:14;4.20;;;3.10;;
7845;SDS011;3968;51.424;6.788;2023-03-17T13:37:59;5.38;;;3.97;;
7845;SDS011;3968;51.424;6.788;2023-03-17T13:40:42;7.28;;;3.33;;
7845;SDS011;3968;51.424;6.788;2023-03-17T13:45:43;4.25;;;2.92;;
7845;SDS011;3968;51.424;6.788;2023-03-17T13:48:43;5.93;;;2.60;;
7845;SDS011;3968;51.424;6.788;2023-03-17T13:53:40;3.55;;;2.63;;
7845;SDS011;3968;51.424;6.788;2023-03-17T13:56:14;4.35;;;2.65;;
7845;SDS011;3968;51.424;6.788;2023-03-17T14:02:13;7.20;;;2.83;;
7845;SDS011;3968;51.424;6.788;2023-03-17T14:04:17;4.55;;;2.70;;
7845;SDS011;3968;51.424;6.788;2023-03-17T14:06:45;3.50;;;2.83;;
7845;SDS011;3968;51.424;6.788;2023-03-17T14:09:20;5.60;;;3.05;;
7845;SDS011;3968;51.424;6.788;2023-03-17T14:11:51;5.90;;;2.40;;
7845;SDS011;3968;51.424;6.788;2023-03-17T14:14:30;4.20;;;2.65;;
7845;SDS011;3968;51.424;6.788;2023-03-17T14:17:07;4.30;;;2.38;;
7845;SDS011;3968;51.424;6.788;2023-03-17T14:19:36;7.35;;;3.45;;
7845;SDS011;3968;51.424;6.788;2023-03-17T14:22:26;3.88;;;2.25;;
7845;SDS011;3968;51.424;6.788;2023-03-17T14:24:55;5.30;;;2.58;;
7845;SDS011;3968;51.424;6.788;2023-03-17T14:27:24;5.13;;;2.72;;
7845;SDS011;3968;51.424;6.788;2023-03-17T14:29:51;3.78;;;2.03;;
7845;SDS011;3968;51.424;6.788;2023-03-17T14:32:18;3.97;;;2.60;;
7845;SDS011;3968;51.424;6.788;2023-03-17T14:34:55;3.33;;;2.70;;
7845;SDS011;3968;51.424;6.788;2023-03-17T14:37:22;3.30;;;2.28;;
7845;SDS011;3968;51.424;6.788;2023-03-17T14:39:52;5.35;;;3.08;;
7845;SDS011;3968;51.424;6.788;2023-03-17T14:42:19;10.27;;;4.72;;
7845;SDS011;3968;51.424;6.788;2023-03-17T14:44:57;9.85;;;4.90;;
7845;SDS011;3968;51.424;6.788;2023-03-17T14:47:24;9.40;;;5.68;;
7845;SDS011;3968;51.424;6.788;2023-03-17T14:49:54;12.45;;;6.50;;
7845;SDS011;3968;51.424;6.788;2023-03-17T14:52:22;9.77;;;6.10;;
7845;SDS011;3968;51.424;6.788;2023-03-17T14:54:51;9.05;;;5.25;;
7845;SDS011;3968;51.424;6.788;2023-03-17T14:57:18;11.80;;;5.93;;
7845;SDS011;3968;51.424;6.788;2023-03-17T15:02:22;7.78;;;4.50;;
7845;SDS011;3968;51.424;6.788;2023-03-17T15:04:54;6.40;;;3.83;;
7845;SDS011;3968;51.424;6.788;2023-03-17T15:10:00;13.65;;;5.80;;
7845;SDS011;3968;51.424;6.788;2023-03-17T15:12:26;9.93;;;5.68;;
7845;SDS011;3968;51.424;6.788;2023-03-17T15:14:55;9.63;;;6.38;;
7845;SDS011;3968;51.424;6.788;2023-03-17T15:17:43;7.97;;;4.70;;
7845;SDS011;3968;51.424;6.788;2023-03-17T15:20:13;6.13;;;3.80;;
7845;SDS011;3968;51.424;6.788;2023-03-17T15:22:41;5.57;;;4.32;;
7845;SDS011;3968;51.424;6.788;2023-03-17T15:27:49;10.68;;;5.93;;
7845;SDS011;3968;51.424;6.788;2023-03-17T15:30:15;7.97;;;4.40;;
7845;SDS011;3968;51.424;6.788;2023-03-17T15:32:42;7.80;;;4.82;;
7845;SDS011;3968;51.424;6.788;2023-03-17T15:35:11;6.75;;;3.65;;
7845;SDS011;3968;51.424;6.788;2023-03-17T15:37:38;7.80;;;4.95;;
7845;SDS011;3968;51.424;6.788;2023-03-17T15:40:05;7.63;;;3.95;;
7845;SDS011;3968;51.424;6.788;2023-03-17T15:42:32;4.60;;;3.10;;
7845;SDS011;3968;51.424;6.788;2023-03-17T15:44:58;8.98;;;4.65;;
7845;SDS011;3968;51.424;6.788;2023-03-17T15:47:26;9.80;;;4.30;;
7845;SDS011;3968;51.424;6.788;2023-03-17T15:49:53;14.77;;;8.30;;
7845;SDS011;3968;51.424;6.788;2023-03-17T15:52:22;13.43;;;7.32;;
7845;SDS011;3968;51.424;6.788;2023-03-17T15:54:49;9.82;;;5.60;;
7845;SDS011;3968;51.424;6.788;2023-03-17T15:57:15;5.88;;;3.33;;
7845;SDS011;3968;51.424;6.788;2023-03-17T15:59:42;5.30;;;3.70;;
7845;SDS011;3968;51.424;6.788;2023-03-17T16:02:24;4.80;;;3.75;;
7845;SDS011;3968;51.424;6.788;2023-03-17T16:04:51;7.35;;;3.97;;
7845;SDS011;3968;51.424;6.788;2023-03-17T16:07:17;6.15;;;3.28;;
7845;SDS011;3968;51.424;6.788;2023-03-17T16:09:45;5.00;;;2.72;;
7845;SDS011;3968;51.424;6.788;2023-03-17T16:12:11;5.88;;;3.40;;
7845;SDS011;3968;51.424;6.788;2023-03-17T16:14:37;10.23;;;3.70;;
7845;SDS011;3968;51.424;6.788;2023-03-17T16:17:03;6.20;;;2.33;;
7845;SDS011;3968;51.424;6.788;2023-03-17T16:19:30;5.22;;;3.80;;
7845;SDS011;3968;51.424;6.788;2023-03-17T16:21:56;4.72;;;3.08;;
7845;SDS011;3968;51.424;6.788;2023-03-17T16:24:23;5.25;;;3.70;;
7845;SDS011;3968;51.424;6.788;2023-03-17T16:26:50;9.18;;;4.30;;
7845;SDS011;3968;51.424;6.788;2023-03-17T16:29:17;8.93;;;4.00;;